Wilson Avonmouth — 9HA2335 — position and weather

sailwx.info

Track history (hours):
 
Tides and Currents Weather Stations Pressure Air Temp Water Temp Dewpoint Dewpoint Depression Visibility Wind Speed Wind Dir Waves Ship Positions

Wilson Avonmouth

Last reported at 2018-Feb-22 05:21 UTC. Time now 2018-Feb-22 13:00 UTC.
Position N 52°47' W 005°48'.

Length 88 m; draft 3 m.

Type: Cargo ship. MMSI: 248367000.

Date/timePositionNaut miles runAvg speedWind from/ knotsBaromVisibWave heightAir tempDewpointWater temp
2018-Feb-22 05:21N 52°47' W 005°48'412.3
2018-Feb-22 05:00N 52°51' W 005°47'612.4
2018-Feb-22 04:30N 52°57' W 005°46'612.3
2018-Feb-22 04:00N 53°03' W 005°46'1011.3
2018-Feb-22 03:07N 53°13' W 005°47'110.2
2018-Feb-22 03:00N 53°14' W 005°47'6 9.9
2018-Feb-22 02:26N 53°20' W 005°49'20 9.4
2018-Feb-22 00:16N 53°40' W 005°55'3 9.3
2018-Feb-21 23:58N 53°43' W 005°56'4 9.4
2018-Feb-21 23:30N 53°47' W 005°57'5 9.6
2018-Feb-21 23:00N 53°52' W 005°59'5 9.8
2018-Feb-21 22:31N 53°56' W 006°01'5 9.5
2018-Feb-21 22:01N 54°01' W 006°03'8 9.5
2018-Feb-21 21:11N 54°05' W 006°14'1 0.0
2018-Feb-20 01:13N 54°06' W 006°16'0 1.5
2018-Feb-20 01:01N 54°06' W 006°15'3 5.8
2018-Feb-20 00:31N 54°04' W 006°12'4 7.2
2018-Feb-20 00:00N 54°02' W 006°07'0 0.4
2018-Feb-19 23:28N 54°02' W 006°07'0 0.0
2018-Feb-19 22:58N 54°02' W 006°07'0 0.1
2018-Feb-19 22:28N 54°02' W 006°07'0 0.1
2018-Feb-19 21:58N 54°02' W 006°07'0 0.3
2018-Feb-19 21:25N 54°01' W 006°06'0 0.1
2018-Feb-19 20:58N 54°01' W 006°06'0 0.0
2018-Feb-19 20:28N 54°01' W 006°06'0 0.0
2018-Feb-19 19:58N 54°02' W 006°06'0 0.0
2018-Feb-19 19:28N 54°02' W 006°06'0 0.0
2018-Feb-19 18:58N 54°02' W 006°06'0 0.0
2018-Feb-19 18:28N 54°02' W 006°06'0 0.0
2018-Feb-19 17:58N 54°02' W 006°06'0 0.0
2018-Feb-19 17:28N 54°02' W 006°06'0 0.0
2018-Feb-19 16:58N 54°02' W 006°06'0 0.0
2018-Feb-19 16:28N 54°02' W 006°06'0 0.0
2018-Feb-19 15:58N 54°02' W 006°06'0 0.1
2018-Feb-19 15:28N 54°02' W 006°06'0 0.0
2018-Feb-19 14:58N 54°02' W 006°06'0 0.0
2018-Feb-19 14:28N 54°02' W 006°06'0 0.0
2018-Feb-19 13:58N 54°02' W 006°06'0 0.1
2018-Feb-19 13:28N 54°02' W 006°06'0 0.0
2018-Feb-19 12:58N 54°02' W 006°06'0 0.1
2018-Feb-19 12:28N 54°02' W 006°07'0 0.1
2018-Feb-19 11:58N 54°02' W 006°07'0 0.1
2018-Feb-19 11:28N 54°02' W 006°07'0 0.0
2018-Feb-19 10:58N 54°02' W 006°07'0 0.0
2018-Feb-19 10:28N 54°02' W 006°07'0 0.0
2018-Feb-19 09:55N 54°02' W 006°07'0 0.0
2018-Feb-19 09:25N 54°02' W 006°07'0 0.1
2018-Feb-19 08:58N 54°02' W 006°07'0 0.2
2018-Feb-19 08:25N 54°02' W 006°06'0 0.1
2018-Feb-19 07:58N 54°02' W 006°06'0 0.1
2018-Feb-19 07:28N 54°02' W 006°06'0 0.0
2018-Feb-19 06:58N 54°02' W 006°06'0 0.0
2018-Feb-19 06:28N 54°02' W 006°06'0 0.0
2018-Feb-19 05:58N 54°02' W 006°06'0 0.0
2018-Feb-19 05:28N 54°02' W 006°06'0 0.0
2018-Feb-19 04:58N 54°02' W 006°06'0 0.0
2018-Feb-19 04:28N 54°02' W 006°06'0 0.0
2018-Feb-19 03:58N 54°02' W 006°06'0 0.0
2018-Feb-19 03:28N 54°02' W 006°06'0 0.0
2018-Feb-19 02:58N 54°02' W 006°06'0 0.0
2018-Feb-19 02:28N 54°02' W 006°06'0 0.0
2018-Feb-19 01:58N 54°02' W 006°06'0 0.1
2018-Feb-19 01:28N 54°02' W 006°06'0 0.1
2018-Feb-19 00:58N 54°02' W 006°06'0 0.0
2018-Feb-19 00:28N 54°02' W 006°06'0 0.0
2018-Feb-18 23:58N 54°02' W 006°06'0 0.1
2018-Feb-18 23:28N 54°02' W 006°07'0 0.0
2018-Feb-18 22:55N 54°02' W 006°07'0 0.0
2018-Feb-18 22:28N 54°02' W 006°07'0 0.0
2018-Feb-18 21:58N 54°02' W 006°06'0 0.0
2018-Feb-18 21:28N 54°02' W 006°07'0 0.1
2018-Feb-18 20:58N 54°02' W 006°07'0 0.1
2018-Feb-18 20:16N 54°02' W 006°06'0 0.2
2018-Feb-18 19:58N 54°02' W 006°06'0 0.0
2018-Feb-18 19:28N 54°02' W 006°06'0 0.0
2018-Feb-18 18:55N 54°02' W 006°06'0 0.0
2018-Feb-18 18:28N 54°02' W 006°06'0 0.0
2018-Feb-18 17:58N 54°02' W 006°06'0 0.0
2018-Feb-18 17:28N 54°02' W 006°06'0 0.0
2018-Feb-18 16:58N 54°02' W 006°06'0 0.0
2018-Feb-18 16:28N 54°02' W 006°06'0 0.0
2018-Feb-18 15:58N 54°02' W 006°06'0 0.1
2018-Feb-18 15:30N 54°02' W 006°06'3 5.9
2018-Feb-18 15:01N 54°00' W 006°02'3 6.5
2018-Feb-18 14:31N 53°57' W 006°01'4 7.2
2018-Feb-18 14:00N 53°53' W 005°60'4 8.3
2018-Feb-18 13:31N 53°49' W 005°58'4 8.5
2018-Feb-18 13:00N 53°45' W 005°57'5 8.7
2018-Feb-18 12:26N 53°40' W 005°55'8 9.1
2018-Feb-18 11:34N 53°32' W 005°52'2 9.5
2018-Feb-18 11:20N 53°30' W 005°52'3 9.6
2018-Feb-18 10:59N 53°27' W 005°51'510.3
2018-Feb-18 10:30N 53°22' W 005°49'511.0
2018-Feb-18 10:00N 53°17' W 005°47'5 9.3
2018-Feb-18 09:30N 53°12' W 005°46'4 7.9
2018-Feb-18 08:58N 53°08' W 005°44'5 9.4
2018-Feb-18 08:26N 53°03' W 005°43'512.3
2018-Feb-18 08:00N 52°58' W 005°43'611.6
2018-Feb-18 07:30N 52°52' W 005°43'611.0
2018-Feb-18 06:55N 52°46' W 005°46'13 9.4
2018-Feb-18 05:30N 52°33' W 005°51'4 8.1
2018-Feb-18 05:00N 52°29' W 005°53'4 7.4
2018-Feb-18 04:30N 52°25' W 005°54'4 7.0
2018-Feb-18 04:01N 52°22' W 005°56'4 6.9
2018-Feb-18 03:30N 52°19' W 005°57'3 6.9
2018-Feb-18 03:01N 52°15' W 005°58'3 6.9
2018-Feb-18 02:31N 52°12' W 005°60'4 7.4
2018-Feb-18 02:00N 52°08' W 006°01'4 7.6
2018-Feb-18 01:30N 52°06' W 006°06'4 8.2
2018-Feb-18 01:00N 52°03' W 006°11'4 8.7
2018-Feb-18 00:30N 52°02' W 006°18'5 9.1
2018-Feb-18 00:00N 52°02' W 006°25'5 9.2
2018-Feb-17 23:30N 52°01' W 006°33'5 9.6
2018-Feb-17 23:00N 52°01' W 006°40'5 9.7
2018-Feb-17 22:30N 52°01' W 006°48'5 9.7
2018-Feb-17 22:00N 52°00' W 006°56'5 9.7
2018-Feb-17 21:30N 51°59' W 007°04'5 9.7
2018-Feb-17 21:00N 51°59' W 007°11'5 9.7
2018-Feb-17 20:30N 51°58' W 007°19'5 9.6
2018-Feb-17 20:00N 51°57' W 007°27'5 9.7
2018-Feb-17 19:30N 51°57' W 007°35'5 9.8
2018-Feb-17 19:00N 51°56' W 007°43'4 8.4
2018-Feb-17 18:30N 51°56' W 007°49'1 0.1
2018-Feb-17 05:51N 51°57' W 007°50'2 4.8
2018-Feb-17 05:31N 51°56' W 007°48'4 8.0
2018-Feb-17 05:00N 51°52' W 007°45'4 7.9
2018-Feb-17 04:30N 51°49' W 007°42'3 6.9
2018-Feb-17 04:00N 51°45' W 007°41'1 1.6
2018-Feb-17 03:31N 51°46' W 007°41'2 3.6
2018-Feb-17 03:00N 51°48' W 007°42'2 5.0
2018-Feb-17 02:30N 51°46' W 007°45'1 1.2
2018-Feb-17 02:00N 51°46' W 007°45'2 4.1
2018-Feb-17 01:31N 51°48' W 007°45'2 4.0
2018-Feb-17 01:01N 51°50' W 007°45'2 4.0
2018-Feb-17 00:30N 51°52' W 007°45'2 4.1
2018-Feb-17 00:00N 51°54' W 007°45'1 1.7
2018-Feb-16 23:31N 51°54' W 007°46'2 5.0
2018-Feb-16 23:01N 51°51' W 007°48'3 5.0
2018-Feb-16 22:30N 51°49' W 007°46'3 5.3
2018-Feb-16 22:01N 51°47' W 007°45'3 5.6
2018-Feb-16 21:31N 51°44' W 007°45'3 5.7
2018-Feb-16 21:00N 51°41' W 007°45'3 5.7
2018-Feb-16 20:31N 51°38' W 007°45'3 6.1
2018-Feb-16 20:01N 51°35' W 007°45'3 6.4
2018-Feb-16 19:31N 51°32' W 007°45'3 6.4
2018-Feb-16 19:01N 51°29' W 007°44'3 7.0
2018-Feb-16 18:31N 51°25' W 007°43'4 7.2
2018-Feb-16 18:00N 51°22' W 007°43'4 7.2
2018-Feb-16 17:30N 51°18' W 007°42'  
2018-Feb-12 18:34N 39°11' W 009°56'1 8.1
2018-Feb-12 18:25N 39°09' W 009°56'3 7.9
2018-Feb-12 17:59N 39°06' W 009°55'4 8.0
2018-Feb-12 17:30N 39°02' W 009°54'4 8.1
2018-Feb-12 17:00N 38°58' W 009°54'5 7.9
2018-Feb-12 16:20N 38°53' W 009°53'7 8.0
2018-Feb-12 15:30N 38°46' W 009°52'4 8.2
2018-Feb-12 15:00N 38°42' W 009°52'4 8.0
2018-Feb-12 14:30N 38°38' W 009°51'4 8.1
2018-Feb-12 14:00N 38°34' W 009°49'25 8.2
2018-Feb-12 10:59N 38°11' W 009°40'  
Track history (hours):
 
Tides and Currents Weather Stations Pressure Air Temp Water Temp Dewpoint Dewpoint Depression Visibility Wind Speed Wind Dir Waves Ship Positions

Wilson Avonmouth

Last reported at 2018-Feb-22 05:21 UTC. Time now 2018-Feb-22 13:00 UTC.
Position N 52°47' W 005°48'.

Length 88 m; draft 3 m.

Type: Cargo ship. MMSI: 248367000.

Date/timePositionNaut miles runAvg speedWind from/ knotsBaromVisibWave heightAir tempDewpointWater temp
2018-Feb-22 05:21N 52°47' W 005°48'412.3
2018-Feb-22 05:00N 52°51' W 005°47'612.4
2018-Feb-22 04:30N 52°57' W 005°46'612.3
2018-Feb-22 04:00N 53°03' W 005°46'1011.3
2018-Feb-22 03:07N 53°13' W 005°47'110.2
2018-Feb-22 03:00N 53°14' W 005°47'6 9.9
2018-Feb-22 02:26N 53°20' W 005°49'20 9.4
2018-Feb-22 00:16N 53°40' W 005°55'3 9.3
2018-Feb-21 23:58N 53°43' W 005°56'4 9.4
2018-Feb-21 23:30N 53°47' W 005°57'5 9.6
2018-Feb-21 23:00N 53°52' W 005°59'5 9.8
2018-Feb-21 22:31N 53°56' W 006°01'5 9.5
2018-Feb-21 22:01N 54°01' W 006°03'8 9.5
2018-Feb-21 21:11N 54°05' W 006°14'1 0.0
2018-Feb-20 01:13N 54°06' W 006°16'0 1.5
2018-Feb-20 01:01N 54°06' W 006°15'3 5.8
2018-Feb-20 00:31N 54°04' W 006°12'4 7.2
2018-Feb-20 00:00N 54°02' W 006°07'0 0.4
2018-Feb-19 23:28N 54°02' W 006°07'0 0.0
2018-Feb-19 22:58N 54°02' W 006°07'0 0.1
2018-Feb-19 22:28N 54°02' W 006°07'0 0.1
2018-Feb-19 21:58N 54°02' W 006°07'0 0.3
2018-Feb-19 21:25N 54°01' W 006°06'0 0.1
2018-Feb-19 20:58N 54°01' W 006°06'0 0.0
2018-Feb-19 20:28N 54°01' W 006°06'0 0.0
2018-Feb-19 19:58N 54°02' W 006°06'0 0.0
2018-Feb-19 19:28N 54°02' W 006°06'0 0.0
2018-Feb-19 18:58N 54°02' W 006°06'0 0.0
2018-Feb-19 18:28N 54°02' W 006°06'0 0.0
2018-Feb-19 17:58N 54°02' W 006°06'0 0.0
2018-Feb-19 17:28N 54°02' W 006°06'0 0.0
2018-Feb-19 16:58N 54°02' W 006°06'0 0.0
2018-Feb-19 16:28N 54°02' W 006°06'0 0.0
2018-Feb-19 15:58N 54°02' W 006°06'0 0.1
2018-Feb-19 15:28N 54°02' W 006°06'0 0.0
2018-Feb-19 14:58N 54°02' W 006°06'0 0.0
2018-Feb-19 14:28N 54°02' W 006°06'0 0.0
2018-Feb-19 13:58N 54°02' W 006°06'0 0.1
2018-Feb-19 13:28N 54°02' W 006°06'0 0.0
2018-Feb-19 12:58N 54°02' W 006°06'0 0.1
2018-Feb-19 12:28N 54°02' W 006°07'0 0.1
2018-Feb-19 11:58N 54°02' W 006°07'0 0.1
2018-Feb-19 11:28N 54°02' W 006°07'0 0.0
2018-Feb-19 10:58N 54°02' W 006°07'0 0.0
2018-Feb-19 10:28N 54°02' W 006°07'0 0.0
2018-Feb-19 09:55N 54°02' W 006°07'0 0.0
2018-Feb-19 09:25N 54°02' W 006°07'0 0.1
2018-Feb-19 08:58N 54°02' W 006°07'0 0.2
2018-Feb-19 08:25N 54°02' W 006°06'0 0.1
2018-Feb-19 07:58N 54°02' W 006°06'0 0.1
2018-Feb-19 07:28N 54°02' W 006°06'0 0.0
2018-Feb-19 06:58N 54°02' W 006°06'0 0.0
2018-Feb-19 06:28N 54°02' W 006°06'0 0.0
2018-Feb-19 05:58N 54°02' W 006°06'0 0.0
2018-Feb-19 05:28N 54°02' W 006°06'0 0.0
2018-Feb-19 04:58N 54°02' W 006°06'0 0.0
2018-Feb-19 04:28N 54°02' W 006°06'0 0.0
2018-Feb-19 03:58N 54°02' W 006°06'0 0.0
2018-Feb-19 03:28N 54°02' W 006°06'0 0.0
2018-Feb-19 02:58N 54°02' W 006°06'0 0.0
2018-Feb-19 02:28N 54°02' W 006°06'0 0.0
2018-Feb-19 01:58N 54°02' W 006°06'0 0.1
2018-Feb-19 01:28N 54°02' W 006°06'0 0.1
2018-Feb-19 00:58N 54°02' W 006°06'0 0.0
2018-Feb-19 00:28N 54°02' W 006°06'0 0.0
2018-Feb-18 23:58N 54°02' W 006°06'0 0.1
2018-Feb-18 23:28N 54°02' W 006°07'0 0.0
2018-Feb-18 22:55N 54°02' W 006°07'0 0.0
2018-Feb-18 22:28N 54°02' W 006°07'0 0.0
2018-Feb-18 21:58N 54°02' W 006°06'0 0.0
2018-Feb-18 21:28N 54°02' W 006°07'0 0.1
2018-Feb-18 20:58N 54°02' W 006°07'0 0.1
2018-Feb-18 20:16N 54°02' W 006°06'0 0.2
2018-Feb-18 19:58N 54°02' W 006°06'0 0.0
2018-Feb-18 19:28N 54°02' W 006°06'0 0.0
2018-Feb-18 18:55N 54°02' W 006°06'0 0.0
2018-Feb-18 18:28N 54°02' W 006°06'0 0.0
2018-Feb-18 17:58N 54°02' W 006°06'0 0.0
2018-Feb-18 17:28N 54°02' W 006°06'0 0.0
2018-Feb-18 16:58N 54°02' W 006°06'0 0.0
2018-Feb-18 16:28N 54°02' W 006°06'0 0.0
2018-Feb-18 15:58N 54°02' W 006°06'0 0.1
2018-Feb-18 15:30N 54°02' W 006°06'3 5.9
2018-Feb-18 15:01N 54°00' W 006°02'3 6.5
2018-Feb-18 14:31N 53°57' W 006°01'4 7.2
2018-Feb-18 14:00N 53°53' W 005°60'4 8.3
2018-Feb-18 13:31N 53°49' W 005°58'4 8.5
2018-Feb-18 13:00N 53°45' W 005°57'5 8.7
2018-Feb-18 12:26N 53°40' W 005°55'8 9.1
2018-Feb-18 11:34N 53°32' W 005°52'2 9.5
2018-Feb-18 11:20N 53°30' W 005°52'3 9.6
2018-Feb-18 10:59N 53°27' W 005°51'510.3
2018-Feb-18 10:30N 53°22' W 005°49'511.0
2018-Feb-18 10:00N 53°17' W 005°47'5 9.3
2018-Feb-18 09:30N 53°12' W 005°46'4 7.9
2018-Feb-18 08:58N 53°08' W 005°44'5 9.4
2018-Feb-18 08:26N 53°03' W 005°43'512.3
2018-Feb-18 08:00N 52°58' W 005°43'611.6
2018-Feb-18 07:30N 52°52' W 005°43'611.0
2018-Feb-18 06:55N 52°46' W 005°46'13 9.4
2018-Feb-18 05:30N 52°33' W 005°51'4 8.1
2018-Feb-18 05:00N 52°29' W 005°53'4 7.4
2018-Feb-18 04:30N 52°25' W 005°54'4 7.0
2018-Feb-18 04:01N 52°22' W 005°56'4 6.9
2018-Feb-18 03:30N 52°19' W 005°57'3 6.9
2018-Feb-18 03:01N 52°15' W 005°58'3 6.9
2018-Feb-18 02:31N 52°12' W 005°60'4 7.4
2018-Feb-18 02:00N 52°08' W 006°01'4 7.6
2018-Feb-18 01:30N 52°06' W 006°06'4 8.2
2018-Feb-18 01:00N 52°03' W 006°11'4 8.7
2018-Feb-18 00:30N 52°02' W 006°18'5 9.1
2018-Feb-18 00:00N 52°02' W 006°25'5 9.2
2018-Feb-17 23:30N 52°01' W 006°33'5 9.6
2018-Feb-17 23:00N 52°01' W 006°40'5 9.7
2018-Feb-17 22:30N 52°01' W 006°48'5 9.7
2018-Feb-17 22:00N 52°00' W 006°56'5 9.7
2018-Feb-17 21:30N 51°59' W 007°04'5 9.7
2018-Feb-17 21:00N 51°59' W 007°11'5 9.7
2018-Feb-17 20:30N 51°58' W 007°19'5 9.6
2018-Feb-17 20:00N 51°57' W 007°27'5 9.7
2018-Feb-17 19:30N 51°57' W 007°35'5 9.8
2018-Feb-17 19:00N 51°56' W 007°43'4 8.4
2018-Feb-17 18:30N 51°56' W 007°49'1 0.1
2018-Feb-17 05:51N 51°57' W 007°50'2 4.8
2018-Feb-17 05:31N 51°56' W 007°48'4 8.0
2018-Feb-17 05:00N 51°52' W 007°45'4 7.9
2018-Feb-17 04:30N 51°49' W 007°42'3 6.9
2018-Feb-17 04:00N 51°45' W 007°41'1 1.6
2018-Feb-17 03:31N 51°46' W 007°41'2 3.6
2018-Feb-17 03:00N 51°48' W 007°42'2 5.0
2018-Feb-17 02:30N 51°46' W 007°45'1 1.2
2018-Feb-17 02:00N 51°46' W 007°45'2 4.1
2018-Feb-17 01:31N 51°48' W 007°45'2 4.0
2018-Feb-17 01:01N 51°50' W 007°45'2 4.0
2018-Feb-17 00:30N 51°52' W 007°45'2 4.1
2018-Feb-17 00:00N 51°54' W 007°45'1 1.7
2018-Feb-16 23:31N 51°54' W 007°46'2 5.0
2018-Feb-16 23:01N 51°51' W 007°48'3 5.0
2018-Feb-16 22:30N 51°49' W 007°46'3 5.3
2018-Feb-16 22:01N 51°47' W 007°45'3 5.6
2018-Feb-16 21:31N 51°44' W 007°45'3 5.7
2018-Feb-16 21:00N 51°41' W 007°45'3 5.7
2018-Feb-16 20:31N 51°38' W 007°45'3 6.1
2018-Feb-16 20:01N 51°35' W 007°45'3 6.4
2018-Feb-16 19:31N 51°32' W 007°45'3 6.4
2018-Feb-16 19:01N 51°29' W 007°44'3 7.0
2018-Feb-16 18:31N 51°25' W 007°43'4 7.2
2018-Feb-16 18:00N 51°22' W 007°43'4 7.2
2018-Feb-16 17:30N 51°18' W 007°42'  
2018-Feb-12 18:34N 39°11' W 009°56'1 8.1
2018-Feb-12 18:25N 39°09' W 009°56'3 7.9
2018-Feb-12 17:59N 39°06' W 009°55'4 8.0
2018-Feb-12 17:30N 39°02' W 009°54'4 8.1
2018-Feb-12 17:00N 38°58' W 009°54'5 7.9
2018-Feb-12 16:20N 38°53' W 009°53'7 8.0
2018-Feb-12 15:30N 38°46' W 009°52'4 8.2
2018-Feb-12 15:00N 38°42' W 009°52'4 8.0
2018-Feb-12 14:30N 38°38' W 009°51'4 8.1
2018-Feb-12 14:00N 38°34' W 009°49'25 8.2
2018-Feb-12 10:59N 38°11' W 009°40'  

Dump ship's entire track history